createdAt,value
2017-03-20T07:56:55.695Z,1003.59
2017-03-20T07:57:55.725Z,1003.54
2017-03-20T07:58:55.753Z,1003.61
2017-03-20T07:59:55.783Z,1003.58
2017-03-20T08:00:55.811Z,1003.54
2017-03-20T08:01:55.826Z,1003.58
2017-03-20T08:02:55.877Z,1003.55
2017-03-20T08:03:55.910Z,1003.52
2017-03-20T08:04:55.934Z,1003.53
2017-03-20T08:05:55.956Z,1003.54
2017-03-20T08:06:56.001Z,1003.56
2017-03-20T08:07:56.029Z,1003.54
2017-03-20T08:08:56.056Z,1003.54
2017-03-20T08:09:56.085Z,1003.53
2017-03-20T08:10:56.102Z,1003.56
2017-03-20T08:11:56.148Z,1003.53
2017-03-20T08:12:56.181Z,1003.55
2017-03-20T08:13:56.210Z,1003.52
2017-03-20T08:14:56.241Z,1003.58
2017-03-20T08:15:56.269Z,1003.54
2017-03-20T08:16:56.309Z,1003.62
2017-03-20T08:17:56.331Z,1003.62
2017-03-20T08:18:56.366Z,1003.64
2017-03-20T08:19:56.397Z,1003.64
2017-03-20T08:20:56.429Z,1003.68
2017-03-20T08:21:56.455Z,1003.64
2017-03-20T08:22:56.487Z,1003.66
2017-03-20T08:23:56.518Z,1003.64
2017-03-20T08:24:56.547Z,1003.66
2017-03-20T08:25:56.579Z,1003.66
2017-03-20T08:26:56.607Z,1003.71
2017-03-20T08:27:56.675Z,1003.67
2017-03-20T08:28:56.699Z,1003.65
2017-03-20T08:29:56.730Z,1003.62
2017-03-20T08:30:56.726Z,1003.68
2017-03-20T08:31:56.762Z,1003.64
2017-03-20T08:32:56.799Z,1003.66
2017-03-20T08:33:56.827Z,1003.71
2017-03-20T08:34:56.861Z,1003.71
2017-03-20T08:35:56.891Z,1003.72
2017-03-20T08:36:56.924Z,1003.77
2017-03-20T08:37:56.951Z,1003.77
2017-03-20T08:38:56.983Z,1003.71
2017-03-20T08:39:57.019Z,1003.73
2017-03-20T08:40:57.046Z,1003.7
2017-03-20T08:41:57.079Z,1003.74
2017-03-20T08:42:57.109Z,1003.74
2017-03-20T08:43:57.145Z,1003.69
2017-03-20T08:44:57.177Z,1003.68
2017-03-20T08:45:57.208Z,1003.72
2017-03-20T08:46:57.233Z,1003.7
2017-03-20T08:47:57.267Z,1003.7
2017-03-20T08:48:57.302Z,1003.76
2017-03-20T08:49:57.332Z,1003.79
2017-03-20T08:50:57.364Z,1003.72
2017-03-20T08:51:57.398Z,1003.71
2017-03-20T08:52:57.429Z,1003.72
2017-03-20T08:53:57.458Z,1003.74
2017-03-20T08:54:57.528Z,1003.73
2017-03-20T08:55:57.574Z,1003.69
2017-03-20T08:56:57.594Z,1003.73
2017-03-20T08:57:57.673Z,1003.7
2017-03-20T08:58:57.680Z,1003.66
2017-03-20T08:59:57.704Z,1003.64
2017-03-20T09:00:57.727Z,1003.65
2017-03-20T09:01:57.766Z,1003.63
2017-03-20T09:02:57.743Z,1003.66
2017-03-20T09:03:57.776Z,1003.67
2017-03-20T09:04:57.803Z,1003.75
2017-03-20T09:05:57.836Z,1003.66
2017-03-20T09:06:57.868Z,1003.72
2017-03-20T09:07:57.900Z,1003.69
2017-03-20T09:08:57.931Z,1003.78
2017-03-20T09:09:57.966Z,1003.78
2017-03-20T09:10:57.993Z,1003.78
2017-03-20T09:11:58.031Z,1003.74
2017-03-20T09:12:58.060Z,1003.74
2017-03-20T09:13:58.098Z,1003.77
2017-03-20T09:14:58.125Z,1003.79
2017-03-20T09:15:58.155Z,1003.73
2017-03-20T09:16:58.186Z,1003.78
2017-03-20T09:17:58.222Z,1003.82
2017-03-20T09:18:58.250Z,1003.81
2017-03-20T09:19:58.287Z,1003.83
2017-03-20T09:20:58.317Z,1003.81
2017-03-20T09:21:58.348Z,1003.84
2017-03-20T09:22:58.379Z,1003.89
2017-03-20T09:23:58.400Z,1003.86
2017-03-20T09:24:58.440Z,1003.85
2017-03-20T09:25:58.474Z,1003.85
2017-03-20T09:26:58.504Z,1003.84
2017-03-20T09:27:58.527Z,1003.83
2017-03-20T09:28:58.570Z,1003.93
2017-03-20T09:29:58.602Z,1003.85
2017-03-20T09:30:58.635Z,1003.85
2017-03-20T09:31:58.664Z,1003.92
2017-03-20T09:32:58.695Z,1003.85
2017-03-20T09:33:58.731Z,1003.9
2017-03-20T09:34:58.757Z,1003.97
2017-03-20T09:35:58.790Z,1003.89
2017-03-20T09:36:58.819Z,1003.92
2017-03-20T09:37:58.875Z,1003.91
2017-03-20T09:38:58.918Z,1003.92
2017-03-20T09:39:58.918Z,1003.92
2017-03-20T09:40:58.948Z,1003.89
2017-03-20T09:41:58.981Z,1003.9
2017-03-20T09:42:59.016Z,1003.94
2017-03-20T09:43:59.047Z,1003.92
2017-03-20T09:44:59.079Z,1003.96
2017-03-20T09:45:59.109Z,1003.94
2017-03-20T09:46:59.138Z,1003.94
2017-03-20T09:47:59.168Z,1003.87
2017-03-20T09:48:59.202Z,1003.92
2017-03-20T09:49:59.232Z,1003.9
2017-03-20T09:50:59.268Z,1003.84
2017-03-20T09:51:59.300Z,1003.9
2017-03-20T09:52:59.332Z,1003.84
2017-03-20T09:53:59.361Z,1003.91
2017-03-20T09:54:59.401Z,1003.85
2017-03-20T09:55:59.424Z,1003.84
2017-03-20T09:56:59.453Z,1003.89
2017-03-20T09:57:59.486Z,1003.88
2017-03-20T09:58:59.539Z,1003.94
2017-03-20T09:59:59.550Z,1003.89
2017-03-20T10:00:59.578Z,1003.86
2017-03-20T10:01:59.617Z,1003.87
2017-03-20T10:02:59.646Z,1003.89
2017-03-20T10:03:59.677Z,1003.85
2017-03-20T10:04:59.706Z,1003.94
2017-03-20T10:05:59.735Z,1003.9
2017-03-20T10:06:59.771Z,1003.92
2017-03-20T10:07:59.807Z,1003.87
2017-03-20T10:08:59.833Z,1003.87
2017-03-20T10:09:59.866Z,1003.88
2017-03-20T10:10:59.899Z,1003.86
2017-03-20T10:11:59.934Z,1003.87
2017-03-20T10:12:59.961Z,1003.91
2017-03-20T10:13:59.991Z,1003.88
2017-03-20T10:15:00.025Z,1003.89
2017-03-20T10:16:00.056Z,1003.91
2017-03-20T10:17:00.087Z,1003.93
2017-03-20T10:18:00.124Z,1003.9
2017-03-20T10:19:00.153Z,1003.9
2017-03-20T10:20:00.182Z,1003.91
2017-03-20T10:21:00.219Z,1003.83
2017-03-20T10:22:00.249Z,1003.9
2017-03-20T10:23:00.281Z,1003.83
2017-03-20T10:24:00.308Z,1003.87
2017-03-20T10:25:00.347Z,1003.93
2017-03-20T10:26:00.379Z,1003.84
2017-03-20T10:27:00.407Z,1003.83
2017-03-20T10:28:00.428Z,1003.76
2017-03-20T10:29:00.473Z,1003.81
2017-03-20T10:30:00.509Z,1003.82
2017-03-20T10:31:00.539Z,1003.75
2017-03-20T10:32:00.573Z,1003.75
2017-03-20T10:33:00.604Z,1003.74
2017-03-20T10:34:00.629Z,1003.72
2017-03-20T10:35:00.674Z,1003.72
2017-03-20T10:36:00.704Z,1003.77
2017-03-20T10:37:00.731Z,1003.72
2017-03-20T10:38:00.771Z,1003.76
2017-03-20T10:39:00.803Z,1003.75
2017-03-20T10:40:00.830Z,1003.82
2017-03-20T10:41:01.165Z,1003.82
2017-03-20T10:42:00.901Z,1003.81
2017-03-20T10:43:00.939Z,1003.79
2017-03-20T10:44:00.964Z,1003.76
2017-03-20T10:45:00.994Z,1003.8
2017-03-20T10:46:01.028Z,1003.77
2017-03-20T10:47:01.064Z,1003.71
2017-03-20T10:48:01.094Z,1003.75
2017-03-20T10:49:01.127Z,1003.7
2017-03-20T10:50:01.156Z,1003.74
2017-03-20T10:51:01.189Z,1003.76
2017-03-20T10:52:01.230Z,1003.68
2017-03-20T10:53:01.254Z,1003.67
2017-03-20T10:54:01.288Z,1003.7
2017-03-20T10:55:01.321Z,1003.72
2017-03-20T10:56:01.364Z,1003.68
2017-03-20T10:57:01.385Z,1003.69
2017-03-20T10:58:01.422Z,1003.74
2017-03-20T10:59:01.453Z,1003.75
2017-03-20T11:00:01.489Z,1003.77
2017-03-20T11:01:01.524Z,1003.72
2017-03-20T11:02:01.550Z,1003.81
2017-03-20T11:03:01.581Z,1003.82
2017-03-20T11:04:01.618Z,1003.83
2017-03-20T11:05:01.649Z,1003.8
2017-03-20T11:06:01.684Z,1003.77
2017-03-20T11:07:01.717Z,1003.84
2017-03-20T11:08:01.749Z,1003.77
2017-03-20T11:09:01.779Z,1003.8
2017-03-20T11:10:01.813Z,1003.76
2017-03-20T11:11:01.844Z,1003.74
2017-03-20T11:12:01.879Z,1003.73
2017-03-20T11:13:01.909Z,1003.76
2017-03-20T11:14:01.942Z,1003.76
2017-03-20T11:15:01.973Z,1003.67
2017-03-20T11:16:02.013Z,1003.73
2017-03-20T11:17:02.039Z,1003.67
2017-03-20T11:18:02.074Z,1003.7
2017-03-20T11:19:02.107Z,1003.71
2017-03-20T11:20:02.125Z,1003.66
2017-03-20T11:21:02.169Z,1003.71
2017-03-20T11:22:02.207Z,1003.67
2017-03-20T11:23:02.227Z,1003.63
2017-03-20T11:24:02.272Z,1003.67
2017-03-20T11:25:02.303Z,1003.67
2017-03-20T11:26:02.336Z,1003.67
2017-03-20T11:27:02.366Z,1003.71
2017-03-20T11:28:02.400Z,1003.65
2017-03-20T11:29:02.433Z,1003.68
2017-03-20T11:30:02.483Z,1003.68
2017-03-20T11:31:02.500Z,1003.71
2017-03-20T11:32:02.532Z,1003.68
2017-03-20T11:33:02.567Z,1003.68
2017-03-20T11:34:02.606Z,1003.69
2017-03-20T11:35:02.630Z,1003.76
2017-03-20T11:36:02.666Z,1003.71
2017-03-20T11:37:02.695Z,1003.75
2017-03-20T11:38:02.796Z,1003.74
2017-03-20T11:39:02.762Z,1003.75
2017-03-20T11:40:02.814Z,1003.75
2017-03-20T11:41:02.830Z,1003.73
2017-03-20T11:42:02.861Z,1003.63
2017-03-20T11:43:02.896Z,1003.65
2017-03-20T11:44:02.927Z,1003.61
2017-03-20T11:45:02.960Z,1003.66
2017-03-20T11:46:02.992Z,1003.6
2017-03-20T11:47:03.030Z,1003.63
2017-03-20T11:48:03.056Z,1003.63
2017-03-20T11:49:03.087Z,1003.6
2017-03-20T11:50:03.122Z,1003.56
2017-03-20T11:51:03.156Z,1003.61
2017-03-20T11:52:03.175Z,1003.59
2017-03-20T11:53:03.250Z,1003.54
2017-03-20T11:54:03.254Z,1003.54
2017-03-20T11:55:03.291Z,1003.58
2017-03-20T11:56:03.323Z,1003.58
2017-03-20T11:57:03.346Z,1003.61
2017-03-20T11:58:03.384Z,1003.56
2017-03-20T11:59:03.416Z,1003.54
2017-03-20T12:00:03.454Z,1003.56
2017-03-20T12:01:03.485Z,1003.55
2017-03-20T12:02:03.523Z,1003.53
2017-03-20T12:03:03.553Z,1003.48
2017-03-20T12:04:03.583Z,1003.51
2017-03-20T12:05:03.622Z,1003.5
2017-03-20T12:06:03.872Z,1003.56
2017-03-20T12:07:03.686Z,1003.58
2017-03-20T12:08:03.706Z,1003.55
2017-03-20T12:09:03.737Z,1003.54
2017-03-20T12:10:03.771Z,1003.54
2017-03-20T12:11:03.814Z,1003.49
2017-03-20T12:12:03.835Z,1003.47
2017-03-20T12:13:03.882Z,1003.47
2017-03-20T12:14:03.913Z,1003.53
2017-03-20T12:15:03.960Z,1003.49
2017-03-20T12:16:03.980Z,1003.49
2017-03-20T12:17:04.015Z,1003.47
2017-03-20T12:18:04.045Z,1003.46
2017-03-20T12:19:04.076Z,1003.46
2017-03-20T12:20:04.116Z,1003.52
2017-03-20T12:21:04.142Z,1003.51
2017-03-20T12:22:04.175Z,1003.53
2017-03-20T12:23:04.210Z,1003.56
2017-03-20T12:24:04.244Z,1003.52
2017-03-20T12:25:04.499Z,1003.53
2017-03-20T12:26:04.308Z,1003.49
2017-03-20T12:27:04.346Z,1003.55
2017-03-20T12:28:04.376Z,1003.51
2017-03-20T12:29:04.406Z,1003.51
2017-03-20T12:30:04.459Z,1003.47
2017-03-20T12:31:04.476Z,1003.46
2017-03-20T12:32:04.509Z,1003.47
2017-03-20T12:33:04.544Z,1003.46
2017-03-20T12:34:04.574Z,1003.48
2017-03-20T12:35:04.599Z,1003.46
2017-03-20T12:36:04.643Z,1003.42
2017-03-20T12:37:04.673Z,1003.38
2017-03-20T12:38:04.708Z,1003.4
2017-03-20T12:39:04.745Z,1003.39
2017-03-20T12:40:04.813Z,1003.33
2017-03-20T12:41:04.805Z,1003.3
2017-03-20T12:42:04.842Z,1003.32
2017-03-20T12:43:04.874Z,1003.35
2017-03-20T12:44:04.904Z,1003.32
2017-03-20T12:45:04.941Z,1003.35
2017-03-20T12:46:04.972Z,1003.35
2017-03-20T12:47:05.002Z,1003.37
2017-03-20T12:48:05.022Z,1003.34
2017-03-20T12:49:05.070Z,1003.36
2017-03-20T12:50:05.106Z,1003.33
2017-03-20T12:51:05.141Z,1003.33
2017-03-20T12:52:05.167Z,1003.31
2017-03-20T12:53:05.201Z,1003.32
2017-03-20T12:54:05.235Z,1003.33
2017-03-20T12:55:05.267Z,1003.41
2017-03-20T12:56:05.313Z,1003.36
2017-03-20T12:57:05.335Z,1003.29
2017-03-20T12:58:05.367Z,1003.3
2017-03-20T12:59:05.409Z,1003.34
2017-03-20T13:00:05.431Z,1003.34
2017-03-20T13:01:05.466Z,1003.31
2017-03-20T13:02:05.501Z,1003.36
2017-03-20T13:03:05.533Z,1003.34
2017-03-20T13:04:05.566Z,1003.28
2017-03-20T13:05:05.596Z,1003.28
2017-03-20T13:06:05.630Z,1003.26
2017-03-20T13:07:05.668Z,1003.31
2017-03-20T13:08:05.697Z,1003.29
2017-03-20T13:09:05.731Z,1003.31
2017-03-20T13:10:05.763Z,1003.26
2017-03-20T13:11:05.783Z,1003.33
2017-03-20T13:12:05.826Z,1003.3
2017-03-20T13:13:05.868Z,1003.31
2017-03-20T13:14:05.897Z,1003.33
2017-03-20T13:15:05.927Z,1003.3
2017-03-20T13:16:05.967Z,1003.35
2017-03-20T13:17:05.993Z,1003.4
2017-03-20T13:18:06.029Z,1003.37
2017-03-20T13:19:06.064Z,1003.42
2017-03-20T13:20:06.092Z,1003.4
2017-03-20T13:21:06.124Z,1003.35
2017-03-20T13:22:06.161Z,1003.47
2017-03-20T13:23:06.193Z,1003.49
2017-03-20T13:24:06.225Z,1003.5
2017-03-20T13:25:06.262Z,1003.52
2017-03-20T13:26:06.297Z,1003.49
2017-03-20T13:27:06.324Z,1003.53
2017-03-20T13:28:06.362Z,1003.45
2017-03-20T13:29:06.391Z,1003.41
2017-03-20T13:30:06.421Z,1003.36
2017-03-20T13:31:06.456Z,1003.4
2017-03-20T13:32:06.525Z,1003.42
2017-03-20T13:33:06.521Z,1003.42
2017-03-20T13:34:06.555Z,1003.33
2017-03-20T13:35:06.585Z,1003.37
2017-03-20T13:36:06.624Z,1003.39
2017-03-20T13:37:06.656Z,1003.36
2017-03-20T13:38:06.691Z,1003.38
2017-03-20T13:39:06.726Z,1003.36
2017-03-20T13:40:06.753Z,1003.33
2017-03-20T13:41:06.792Z,1003.36
2017-03-20T13:42:06.826Z,1003.35
2017-03-20T13:43:06.857Z,1003.35
2017-03-20T13:44:06.894Z,1003.44
2017-03-20T13:45:06.924Z,1003.36
2017-03-20T13:46:06.956Z,1003.31
2017-03-20T13:47:06.989Z,1003.41
2017-03-20T13:48:07.022Z,1003.36
2017-03-20T13:49:07.057Z,1003.28
2017-03-20T13:50:07.092Z,1003.35
2017-03-20T13:51:07.121Z,1003.26
2017-03-20T13:52:07.154Z,1003.32
2017-03-20T13:53:07.191Z,1003.25
2017-03-20T13:54:07.223Z,1003.24
2017-03-20T13:55:07.257Z,1003.25
2017-03-20T13:56:07.290Z,1003.27
2017-03-20T13:57:07.325Z,1003.25
2017-03-20T13:58:07.361Z,1003.22
2017-03-20T13:59:07.393Z,1003.21
2017-03-20T14:00:07.635Z,1003.17
2017-03-20T14:01:07.464Z,1003.18
2017-03-20T14:02:07.496Z,1003.13
2017-03-20T14:03:07.528Z,1003.07
2017-03-20T14:04:07.565Z,1003.2
2017-03-20T14:05:07.595Z,1003.19
2017-03-20T14:06:07.627Z,1003.18
2017-03-20T14:07:07.665Z,1003.14
2017-03-20T14:08:07.699Z,1003.07
2017-03-20T14:09:07.731Z,1003.13
2017-03-20T14:10:07.760Z,1003.12
2017-03-20T14:11:07.797Z,1003.04
2017-03-20T14:12:07.838Z,1003.05
2017-03-20T14:13:07.862Z,1003.04
2017-03-20T14:14:07.895Z,1003.01
2017-03-20T14:15:07.929Z,1002.99
2017-03-20T14:16:07.987Z,1003.02
2017-03-20T14:17:08.001Z,1003.08
2017-03-20T14:18:08.032Z,1003.12
2017-03-20T14:19:08.071Z,1003.1
2017-03-20T14:20:08.099Z,1003.1
2017-03-20T14:21:08.134Z,1003.13
2017-03-20T14:22:08.165Z,1003.11
2017-03-20T14:23:08.200Z,1003.17
2017-03-20T14:24:08.233Z,1003.14
2017-03-20T14:25:08.268Z,1003.17
2017-03-20T14:26:08.302Z,1003.12
2017-03-20T14:27:08.337Z,1003.09
2017-03-20T14:28:08.369Z,1003.13
2017-03-20T14:29:08.402Z,1003.14
2017-03-20T14:30:08.435Z,1003.13
2017-03-20T14:31:08.466Z,1003.07
2017-03-20T14:32:08.502Z,1003.08
2017-03-20T14:33:08.536Z,1003.09
2017-03-20T14:34:08.568Z,1003.04
2017-03-20T14:35:08.603Z,1003.03
2017-03-20T14:36:08.636Z,1003.02
2017-03-20T14:37:08.666Z,1003.09
2017-03-20T14:38:08.702Z,1003.06
2017-03-20T14:39:08.735Z,1003.05
2017-03-20T14:40:08.752Z,1003.01
2017-03-20T14:41:08.802Z,1003.04
2017-03-20T14:42:08.837Z,1003.08
2017-03-20T14:43:08.873Z,1003.05
2017-03-20T14:44:08.899Z,1003.03
2017-03-20T14:45:08.935Z,1002.99
2017-03-20T14:46:08.968Z,1002.94
2017-03-20T14:47:09.004Z,1002.94
2017-03-20T14:48:09.035Z,1002.92
2017-03-20T14:49:09.072Z,1002.91
2017-03-20T14:50:09.101Z,1002.87
2017-03-20T14:51:09.136Z,1002.91
2017-03-20T14:52:09.169Z,1002.86
2017-03-20T14:53:09.201Z,1002.93
2017-03-20T14:54:09.236Z,1002.91
2017-03-20T14:55:09.267Z,1002.88
2017-03-20T14:56:09.300Z,1002.89
2017-03-20T14:57:09.334Z,1002.82
2017-03-20T14:58:09.374Z,1002.92
2017-03-20T14:59:09.399Z,1002.83
2017-03-20T15:00:09.435Z,1002.8
2017-03-20T15:01:09.469Z,1002.86
2017-03-20T15:02:09.496Z,1002.85
2017-03-20T15:03:09.532Z,1002.87
2017-03-20T15:04:09.569Z,1002.88
2017-03-20T15:05:09.604Z,1002.87
2017-03-20T15:06:09.630Z,1002.83
2017-03-20T15:07:09.669Z,1002.81
2017-03-20T15:08:09.703Z,1002.86
2017-03-20T15:09:09.734Z,1002.81
2017-03-20T15:10:09.765Z,1002.81
2017-03-20T15:11:09.797Z,1002.78
2017-03-20T15:12:09.831Z,1002.76
2017-03-20T15:13:09.866Z,1002.78
2017-03-20T15:14:09.901Z,1002.78
2017-03-20T15:15:09.932Z,1002.81
2017-03-20T15:16:09.962Z,1002.77
2017-03-20T15:17:09.994Z,1002.69
2017-03-20T15:18:10.030Z,1002.74
2017-03-20T15:19:10.062Z,1002.71
2017-03-20T15:20:10.095Z,1002.69
2017-03-20T15:21:10.130Z,1002.67
2017-03-20T15:22:10.161Z,1002.74
2017-03-20T15:23:10.198Z,1002.75
2017-03-20T15:24:10.226Z,1002.7
2017-03-20T15:25:10.258Z,1002.73
2017-03-20T15:26:10.297Z,1002.72
2017-03-20T15:27:10.326Z,1002.69
2017-03-20T15:28:10.354Z,1002.73
2017-03-20T15:29:10.397Z,1002.74
2017-03-20T15:30:10.422Z,1002.7
2017-03-20T15:31:10.457Z,1002.71
2017-03-20T15:32:10.490Z,1002.67
2017-03-20T15:33:10.515Z,1002.65
2017-03-20T15:34:10.561Z,1002.6
2017-03-20T15:35:10.592Z,1002.57
2017-03-20T15:36:10.620Z,1002.59
2017-03-20T15:37:10.656Z,1002.66
2017-03-20T15:38:10.691Z,1002.63
2017-03-20T15:39:10.719Z,1002.56
2017-03-20T15:40:10.752Z,1002.54
2017-03-20T15:41:10.781Z,1002.59
2017-03-20T15:42:10.811Z,1002.54
2017-03-20T15:43:10.852Z,1002.48
2017-03-20T15:44:10.888Z,1002.46
2017-03-20T15:45:10.919Z,1002.49
2017-03-20T15:46:10.951Z,1002.48
2017-03-20T15:47:10.985Z,1002.56
2017-03-20T15:48:11.019Z,1002.52
2017-03-20T15:49:11.054Z,1002.45
2017-03-20T15:50:11.082Z,1002.45
2017-03-20T15:51:11.115Z,1002.41
2017-03-20T15:52:11.146Z,1002.42
2017-03-20T15:53:11.177Z,1002.37
2017-03-20T15:54:11.215Z,1002.38
2017-03-20T15:55:11.247Z,1002.39
2017-03-20T15:56:11.276Z,1002.4
2017-03-20T15:57:11.309Z,1002.35
2017-03-20T15:58:11.341Z,1002.35
2017-03-20T15:59:11.376Z,1002.37
2017-03-20T16:00:11.403Z,1002.38
2017-03-20T16:01:11.443Z,1002.41
2017-03-20T16:02:11.473Z,1002.35
2017-03-20T16:03:11.502Z,1002.41
2017-03-20T16:04:11.537Z,1002.38
2017-03-20T16:05:11.571Z,1002.42
2017-03-20T16:06:11.616Z,1002.41
2017-03-20T16:07:11.636Z,1002.37
2017-03-20T16:08:11.659Z,1002.35
2017-03-20T16:09:11.705Z,1002.36
2017-03-20T16:10:11.735Z,1002.33
2017-03-20T16:11:11.770Z,1002.35
2017-03-20T16:12:11.795Z,1002.38
2017-03-20T16:13:11.832Z,1002.33
2017-03-20T16:14:11.867Z,1002.4
2017-03-20T16:15:11.898Z,1002.36
2017-03-20T16:16:11.930Z,1002.4
2017-03-20T16:17:11.963Z,1002.39
2017-03-20T16:18:11.994Z,1002.4
2017-03-20T16:19:12.034Z,1002.41
2017-03-20T16:20:12.057Z,1002.41
2017-03-20T16:21:12.091Z,1002.37
2017-03-20T16:22:12.115Z,1002.35
2017-03-20T16:23:12.157Z,1002.32
2017-03-20T16:24:12.191Z,1002.31
2017-03-20T16:25:12.222Z,1002.31
2017-03-20T16:26:12.252Z,1002.3
2017-03-20T16:27:12.285Z,1002.28
2017-03-20T16:28:12.319Z,1002.2
2017-03-20T16:29:12.348Z,1002.23
2017-03-20T16:30:12.384Z,1002.26
2017-03-20T16:31:12.414Z,1002.23
2017-03-20T16:32:12.433Z,1002.24
2017-03-20T16:33:12.478Z,1002.27
2017-03-20T16:34:12.514Z,1002.31
2017-03-20T16:35:12.543Z,1002.26
2017-03-20T16:36:12.585Z,1002.27
2017-03-20T16:37:12.604Z,1002.22
2017-03-20T16:38:12.638Z,1002.2
2017-03-20T16:39:12.684Z,1002.21
2017-03-20T16:40:12.690Z,1002.23
2017-03-20T16:41:12.746Z,1002.2
2017-03-20T16:42:12.770Z,1002.18
2017-03-20T16:43:12.801Z,1002.18
2017-03-20T16:44:12.831Z,1002.19
2017-03-20T16:45:12.868Z,1002.17
2017-03-20T16:46:12.897Z,1002.2
2017-03-20T16:47:12.929Z,1002.16
2017-03-20T16:48:12.958Z,1002.2
2017-03-20T16:49:12.998Z,1002.17
2017-03-20T16:50:13.025Z,1002.2
2017-03-20T16:51:13.063Z,1002.18
2017-03-20T16:52:13.088Z,1002.17
2017-03-20T16:53:13.121Z,1002.2
2017-03-20T16:54:13.151Z,1002.16
2017-03-20T16:55:13.188Z,1002.23
2017-03-20T16:56:13.214Z,1002.22
2017-03-20T16:57:13.249Z,1002.17
2017-03-20T16:58:13.284Z,1002.17
2017-03-20T16:59:13.314Z,1002.21
2017-03-20T17:00:13.345Z,1002.15
2017-03-20T17:01:13.381Z,1002.16
2017-03-20T17:02:13.411Z,1002.12
2017-03-20T17:03:13.445Z,1002.07
2017-03-20T17:04:13.471Z,1002.14
2017-03-20T17:05:13.513Z,1002.1
2017-03-20T17:06:13.533Z,1002.11
2017-03-20T17:07:13.570Z,1002.1
2017-03-20T17:08:13.597Z,1002.05
2017-03-20T17:09:13.629Z,1002.03
2017-03-20T17:10:13.665Z,1002.06
2017-03-20T17:11:13.698Z,1002.07
2017-03-20T17:12:13.728Z,1002.04
2017-03-20T17:13:13.759Z,1002.02
2017-03-20T17:14:13.796Z,1002.02
2017-03-20T17:15:14.074Z,1001.97
2017-03-20T17:16:13.839Z,1002
2017-03-20T17:17:13.886Z,1002
2017-03-20T17:18:13.916Z,1001.96
2017-03-20T17:19:13.954Z,1001.97
2017-03-20T17:20:13.971Z,1001.97
2017-03-20T17:21:14.003Z,1001.99
2017-03-20T17:22:14.071Z,1001.93
2017-03-20T17:23:14.087Z,1001.97
2017-03-20T17:24:14.112Z,1001.98
2017-03-20T17:25:14.141Z,1002.01
2017-03-20T17:26:14.173Z,1001.98
2017-03-20T17:27:14.204Z,1001.91
2017-03-20T17:28:14.236Z,1001.9
2017-03-20T17:29:14.271Z,1001.89
2017-03-20T17:30:14.400Z,1001.95
2017-03-20T17:31:14.323Z,1001.98
2017-03-20T17:32:14.364Z,1001.91
2017-03-20T17:33:14.397Z,1001.97
2017-03-20T17:34:14.426Z,1001.9
2017-03-20T17:35:14.457Z,1001.96
2017-03-20T17:36:14.493Z,1001.94
2017-03-20T17:37:14.524Z,1001.92
2017-03-20T17:38:14.556Z,1001.9
2017-03-20T17:39:14.585Z,1001.89
2017-03-20T17:40:14.615Z,1001.87
2017-03-20T17:41:14.653Z,1001.83
2017-03-20T17:42:14.682Z,1001.88
2017-03-20T17:43:14.713Z,1001.83
2017-03-20T17:44:14.745Z,1001.87
2017-03-20T17:45:14.775Z,1001.79
2017-03-20T17:46:14.793Z,1001.8
2017-03-20T17:47:14.841Z,1001.77
2017-03-20T17:48:14.870Z,1001.79
2017-03-20T17:49:14.901Z,1001.8
2017-03-20T17:50:14.926Z,1001.83
2017-03-20T17:51:14.967Z,1001.76
2017-03-20T17:52:15.001Z,1001.83
2017-03-20T17:53:15.033Z,1001.75
2017-03-20T17:54:15.064Z,1001.77
2017-03-20T17:55:15.246Z,1001.85
2017-03-20T17:56:15.127Z,1001.86
2017-03-20T17:57:15.153Z,1001.87
2017-03-20T17:58:15.186Z,1001.74
2017-03-20T17:59:15.219Z,1001.76
2017-03-20T18:00:15.254Z,1001.72
2017-03-20T18:01:15.283Z,1001.74
2017-03-20T18:02:15.314Z,1001.7
2017-03-20T18:03:15.347Z,1001.68
2017-03-20T18:04:15.381Z,1001.63
2017-03-20T18:05:15.412Z,1001.65
2017-03-20T18:06:15.443Z,1001.64
2017-03-20T18:07:15.472Z,1001.61
2017-03-20T18:08:15.510Z,1001.66
2017-03-20T18:09:15.536Z,1001.59
2017-03-20T18:10:15.567Z,1001.59
2017-03-20T18:11:15.598Z,1001.56
2017-03-20T18:12:15.629Z,1001.59
2017-03-20T18:13:15.657Z,1001.64
2017-03-20T18:14:15.696Z,1001.55
2017-03-20T18:15:15.724Z,1001.61
2017-03-20T18:16:15.756Z,1001.61
2017-03-20T18:17:15.786Z,1001.65
2017-03-20T18:18:15.822Z,1001.65
2017-03-20T18:19:15.851Z,1001.68
2017-03-20T18:20:15.879Z,1001.61
2017-03-20T18:21:15.905Z,1001.7
2017-03-20T18:22:15.949Z,1001.66
2017-03-20T18:23:15.973Z,1001.63
2017-03-20T18:24:16.007Z,1001.66
2017-03-20T18:25:16.039Z,1001.67
2017-03-20T18:26:16.072Z,1001.69
2017-03-20T18:27:16.105Z,1001.58
2017-03-20T18:28:16.131Z,1001.63
2017-03-20T18:29:16.166Z,1001.62
2017-03-20T18:30:16.196Z,1001.6
2017-03-20T18:31:16.215Z,1001.58
2017-03-20T18:32:16.258Z,1001.54
2017-03-20T18:33:16.294Z,1001.57
2017-03-20T18:34:16.320Z,1001.56
2017-03-20T18:35:16.356Z,1001.59
2017-03-20T18:36:16.386Z,1001.59
2017-03-20T18:37:16.424Z,1001.63
2017-03-20T18:38:16.448Z,1001.56
2017-03-20T18:39:16.481Z,1001.64
2017-03-20T18:40:16.515Z,1001.56
2017-03-20T18:41:16.543Z,1001.62
2017-03-20T18:42:16.572Z,1001.62
2017-03-20T18:43:16.605Z,1001.6
2017-03-20T18:44:16.634Z,1001.6
2017-03-20T18:45:16.669Z,1001.59
2017-03-20T18:46:16.701Z,1001.58
2017-03-20T18:47:16.731Z,1001.54
2017-03-20T18:48:16.762Z,1001.61
2017-03-20T18:49:16.795Z,1001.49
2017-03-20T18:50:16.810Z,1001.52
2017-03-20T18:51:16.859Z,1001.6
2017-03-20T18:52:16.889Z,1001.56
2017-03-20T18:53:16.918Z,1001.58
2017-03-20T18:54:16.951Z,1001.51
2017-03-20T18:55:17.131Z,1001.54
2017-03-20T18:56:17.017Z,1001.48
2017-03-20T18:57:17.047Z,1001.55
2017-03-20T18:58:17.075Z,1001.49
2017-03-20T18:59:17.111Z,1001.52
2017-03-20T19:00:17.128Z,1001.58
2017-03-20T19:01:17.170Z,1001.6
2017-03-20T19:02:17.203Z,1001.5
2017-03-20T19:03:17.233Z,1001.52
2017-03-20T19:04:17.264Z,1001.5
2017-03-20T19:05:17.295Z,1001.52
2017-03-20T19:06:17.314Z,1001.5
2017-03-20T19:07:17.360Z,1001.43
2017-03-20T19:08:17.416Z,1001.39
2017-03-20T19:09:17.418Z,1001.4
2017-03-20T19:10:17.452Z,1001.36
2017-03-20T19:11:17.486Z,1001.44
2017-03-20T19:12:17.516Z,1001.39
2017-03-20T19:13:17.547Z,1001.41
2017-03-20T19:14:17.578Z,1001.36
2017-03-20T19:15:17.611Z,1001.37
2017-03-20T19:16:17.642Z,1001.34
2017-03-20T19:17:17.675Z,1001.33
2017-03-20T19:18:17.705Z,1001.35
2017-03-20T19:19:17.724Z,1001.43
2017-03-20T19:20:17.922Z,1001.33
2017-03-20T19:21:17.797Z,1001.36
2017-03-20T19:22:17.827Z,1001.34
2017-03-20T19:23:17.864Z,1001.29
2017-03-20T19:24:17.894Z,1001.24
2017-03-20T19:25:17.926Z,1001.27
2017-03-20T19:26:17.958Z,1001.27
2017-03-20T19:27:17.984Z,1001.31
2017-03-20T19:28:18.019Z,1001.26
2017-03-20T19:29:18.057Z,1001.22
2017-03-20T19:30:18.082Z,1001.28
2017-03-20T19:31:18.116Z,1001.27
2017-03-20T19:32:18.143Z,1001.31
2017-03-20T19:33:18.175Z,1001.38
2017-03-20T19:34:18.206Z,1001.31
2017-03-20T19:35:18.236Z,1001.28
2017-03-20T19:36:18.275Z,1001.29
2017-03-20T19:37:18.302Z,1001.29
2017-03-20T19:38:18.332Z,1001.3
2017-03-20T19:39:18.366Z,1001.27
2017-03-20T19:40:18.393Z,1001.28
2017-03-20T19:41:18.425Z,1001.24
2017-03-20T19:42:18.443Z,1001.31
2017-03-20T19:43:18.488Z,1001.33
2017-03-20T19:44:18.520Z,1001.25
2017-03-20T19:45:18.548Z,1001.25
2017-03-20T19:46:18.587Z,1001.25
2017-03-20T19:47:18.616Z,1001.27
2017-03-20T19:48:18.648Z,1001.24
2017-03-20T19:49:18.680Z,1001.19
2017-03-20T19:50:18.708Z,1001.16
2017-03-20T19:51:18.742Z,1001.18
2017-03-20T19:52:18.776Z,1001.2
2017-03-20T19:53:18.803Z,1001.1
2017-03-20T19:54:18.835Z,1001.07
2017-03-20T19:55:18.867Z,1001.1
2017-03-20T19:56:18.893Z,1001.14
2017-03-20T19:57:18.925Z,1001.07
2017-03-20T19:58:18.944Z,1001.12
2017-03-20T19:59:18.985Z,1001.06
2017-03-20T20:00:19.006Z,1001.15
2017-03-20T20:01:19.050Z,1001.17
2017-03-20T20:02:19.075Z,1001.13
2017-03-20T20:03:19.114Z,1001.07
2017-03-20T20:04:19.144Z,1001.18
2017-03-20T20:05:19.168Z,1001.15